createdAt,value
2017-10-12T00:01:47.594Z,69.80
2017-10-12T00:04:14.012Z,69.40
2017-10-12T00:06:40.417Z,68.70
2017-10-12T00:09:06.800Z,69.20
2017-10-12T00:11:33.231Z,68.80
2017-10-12T00:13:59.620Z,69.00
2017-10-12T00:16:38.981Z,68.90
2017-10-12T00:19:05.450Z,69.40
2017-10-12T00:21:31.885Z,70.10
2017-10-12T00:23:58.257Z,70.60
2017-10-12T00:26:24.878Z,71.20
2017-10-12T00:28:51.296Z,71.80
2017-10-12T00:31:17.690Z,71.80
2017-10-12T00:33:44.084Z,72.00
2017-10-12T00:36:10.487Z,72.10
2017-10-12T00:38:36.896Z,71.60
2017-10-12T00:41:03.329Z,71.20
2017-10-12T00:43:29.760Z,70.60
2017-10-12T00:45:56.180Z,70.70
2017-10-12T00:48:22.609Z,70.30
2017-10-12T00:50:49.283Z,69.70
2017-10-12T00:53:17.142Z,70.30
2017-10-12T00:55:45.035Z,70.60
2017-10-12T00:58:12.221Z,70.10
2017-10-12T01:00:38.673Z,70.20
2017-10-12T01:03:05.111Z,70.30
2017-10-12T01:05:31.539Z,70.60
2017-10-12T01:07:58.001Z,70.70
2017-10-12T01:10:25.174Z,70.40
2017-10-12T01:12:52.355Z,70.80
2017-10-12T01:15:18.819Z,70.80
2017-10-12T01:17:46.702Z,71.00
2017-10-12T01:20:13.220Z,70.90
2017-10-12T01:22:39.699Z,70.80
2017-10-12T01:25:06.914Z,70.70
2017-10-12T01:27:33.376Z,70.70
2017-10-12T01:30:00.604Z,70.30
2017-10-12T01:32:27.838Z,70.80
2017-10-12T01:34:54.296Z,70.90
2017-10-12T01:37:20.709Z,71.00
2017-10-12T01:39:47.192Z,71.20
2017-10-12T01:42:13.637Z,71.20
2017-10-12T01:44:40.233Z,71.40
2017-10-12T01:47:07.670Z,71.70
2017-10-12T01:49:34.139Z,71.60
2017-10-12T01:52:01.334Z,72.50
2017-10-12T01:54:27.737Z,72.50
2017-10-12T01:56:54.165Z,72.40
2017-10-12T01:59:21.331Z,72.20
2017-10-12T02:01:47.727Z,72.20
2017-10-12T02:04:14.929Z,72.70
2017-10-12T02:06:41.355Z,72.10
2017-10-12T02:09:07.796Z,72.00
2017-10-12T02:11:34.236Z,72.20
2017-10-12T02:14:00.673Z,72.70
2017-10-12T02:16:27.065Z,72.80
2017-10-12T02:18:53.530Z,72.40
2017-10-12T02:21:19.985Z,72.10
2017-10-12T02:23:46.411Z,72.00
2017-10-12T02:26:12.880Z,72.10
2017-10-12T02:28:40.060Z,71.60
2017-10-12T02:31:06.509Z,71.60
2017-10-12T02:33:32.949Z,72.00
2017-10-12T02:35:59.385Z,71.90
2017-10-12T02:38:25.796Z,71.80
2017-10-12T02:40:52.220Z,71.70
2017-10-12T02:43:18.692Z,71.60
2017-10-12T02:45:45.192Z,71.50
2017-10-12T02:48:11.672Z,71.40
2017-10-12T02:50:38.140Z,71.10
2017-10-12T02:53:04.675Z,71.80
2017-10-12T02:55:31.854Z,71.90
2017-10-12T02:57:58.299Z,71.80
2017-10-12T03:00:24.786Z,71.80
2017-10-12T03:02:51.971Z,72.30
2017-10-12T03:05:18.907Z,72.20
2017-10-12T03:07:45.354Z,72.10
2017-10-12T03:10:11.792Z,71.20
2017-10-12T03:12:38.258Z,71.40
2017-10-12T03:15:05.478Z,71.10
2017-10-12T03:17:31.973Z,71.60
2017-10-12T03:19:58.400Z,70.60
2017-10-12T03:22:25.598Z,70.80
2017-10-12T03:24:52.086Z,70.80
2017-10-12T03:27:18.530Z,70.70
2017-10-12T03:29:44.970Z,70.90
2017-10-12T03:32:11.414Z,70.70
2017-10-12T03:34:37.853Z,71.80
2017-10-12T03:37:04.325Z,71.20
2017-10-12T03:39:31.480Z,71.80
2017-10-12T03:41:57.952Z,71.70
2017-10-12T03:44:24.450Z,72.00
2017-10-12T03:46:51.613Z,73.60
2017-10-12T03:49:18.103Z,72.90
2017-10-12T03:51:44.624Z,72.20
2017-10-12T03:54:11.110Z,71.40
2017-10-12T03:56:38.380Z,70.20
2017-10-12T03:59:05.550Z,70.70
2017-10-12T04:01:32.079Z,70.70
2017-10-12T04:03:58.524Z,71.10
2017-10-12T04:06:24.949Z,70.90
2017-10-12T04:08:51.366Z,70.50
2017-10-12T04:11:18.488Z,70.90
2017-10-12T04:13:44.904Z,70.90
2017-10-12T04:16:11.295Z,70.90
2017-10-12T04:18:37.682Z,70.80
2017-10-12T04:21:04.106Z,71.00
2017-10-12T04:23:30.604Z,71.10
2017-10-12T04:25:57.037Z,71.10
2017-10-12T04:28:23.511Z,71.50
2017-10-12T04:30:50.701Z,71.40
2017-10-12T04:33:17.136Z,71.30
2017-10-12T04:35:43.533Z,71.30
2017-10-12T04:38:09.935Z,71.60
2017-10-12T04:40:36.330Z,71.70
2017-10-12T04:43:02.738Z,71.10
2017-10-12T04:45:29.886Z,71.20
2017-10-12T04:47:56.347Z,71.10
2017-10-12T04:50:22.837Z,70.60
2017-10-12T04:52:49.261Z,70.30
2017-10-12T04:55:15.679Z,69.90
2017-10-12T04:57:42.112Z,70.30
2017-10-12T05:00:09.447Z,70.70
2017-10-12T05:02:35.878Z,71.20
2017-10-12T05:05:02.292Z,70.70
2017-10-12T05:07:28.707Z,70.80
2017-10-12T05:09:55.829Z,70.60
2017-10-12T05:12:22.258Z,70.60
2017-10-12T05:14:48.905Z,70.10
2017-10-12T05:17:15.305Z,70.60
2017-10-12T05:19:41.705Z,71.60
2017-10-12T05:22:08.913Z,70.00
2017-10-12T05:24:35.295Z,70.00
2017-10-12T05:27:01.724Z,70.30
2017-10-12T05:29:28.861Z,69.80
2017-10-12T05:31:55.332Z,69.80
2017-10-12T05:34:22.520Z,70.40
2017-10-12T05:36:48.987Z,70.40
2017-10-12T05:39:15.415Z,70.20
2017-10-12T05:41:42.593Z,70.60
2017-10-12T05:44:08.991Z,70.50
2017-10-12T05:46:36.195Z,71.00
2017-10-12T05:49:02.623Z,70.90
2017-10-12T05:51:29.004Z,70.80
2017-10-12T05:53:56.133Z,71.30
2017-10-12T05:56:22.544Z,71.10
2017-10-12T05:58:48.941Z,71.30
2017-10-12T06:01:15.379Z,71.10
2017-10-12T06:03:41.776Z,71.60
2017-10-12T06:06:08.206Z,71.30
2017-10-12T06:08:35.387Z,70.90
2017-10-12T06:11:01.785Z,71.40
2017-10-12T06:13:29.731Z,71.60
2017-10-12T06:15:56.173Z,71.60
2017-10-12T06:18:22.595Z,71.30
2017-10-12T06:20:49.074Z,71.70
2017-10-12T06:23:15.512Z,71.30
2017-10-12T06:25:42.707Z,71.60
2017-10-12T06:28:09.124Z,71.60
2017-10-12T06:30:35.567Z,70.70
2017-10-12T06:33:02.019Z,68.90
2017-10-12T06:35:29.921Z,66.20
2017-10-12T06:37:57.142Z,65.10
2017-10-12T06:42:56.833Z,64.50
2017-10-12T06:45:23.334Z,64.60
2017-10-12T06:47:49.787Z,65.90
2017-10-12T06:50:16.217Z,66.50
2017-10-12T06:52:42.650Z,65.80
2017-10-12T06:55:09.092Z,66.30
2017-10-12T06:57:35.734Z,64.30
2017-10-12T07:00:02.253Z,64.70
2017-10-12T07:02:28.659Z,64.50
2017-10-12T07:04:55.090Z,65.80
2017-10-12T07:07:22.288Z,69.30
2017-10-12T07:09:48.710Z,68.80
2017-10-12T07:12:15.169Z,68.60
2017-10-12T07:14:41.602Z,68.20
2017-10-12T07:17:08.064Z,68.30
2017-10-12T07:19:34.485Z,68.30
2017-10-12T07:22:00.942Z,69.00
2017-10-12T07:24:28.096Z,70.60
2017-10-12T07:26:54.495Z,69.90
2017-10-12T07:29:20.900Z,69.00
2017-10-12T07:31:47.358Z,69.10
2017-10-12T07:34:13.791Z,69.50
2017-10-12T07:36:40.242Z,69.40
2017-10-12T07:39:06.690Z,69.60
2017-10-12T07:41:33.850Z,69.30
2017-10-12T07:44:01.048Z,69.00
2017-10-12T07:46:27.507Z,69.00
2017-10-12T07:48:53.930Z,69.60
2017-10-12T07:51:20.363Z,69.80
2017-10-12T07:53:46.822Z,69.40
2017-10-12T07:56:13.227Z,68.00
2017-10-12T07:58:39.668Z,68.40
2017-10-12T08:01:06.127Z,66.90
2017-10-12T08:03:32.509Z,66.80
2017-10-12T08:05:58.924Z,67.30
2017-10-12T08:08:25.324Z,66.70
2017-10-12T08:10:52.469Z,65.50
2017-10-12T08:13:18.895Z,65.50
2017-10-12T08:15:45.310Z,66.20
2017-10-12T08:18:11.724Z,66.10
2017-10-12T08:20:38.135Z,64.90
2017-10-12T08:23:04.630Z,65.20
2017-10-12T08:25:31.824Z,65.10
2017-10-12T08:27:58.220Z,64.80
2017-10-12T08:30:24.651Z,64.30
2017-10-12T08:32:51.050Z,65.70
2017-10-12T08:35:17.458Z,65.10
2017-10-12T08:37:43.886Z,64.80
2017-10-12T08:40:10.287Z,64.40
2017-10-12T08:42:36.696Z,62.60
2017-10-12T08:45:03.156Z,63.10
2017-10-12T08:47:30.369Z,62.40
2017-10-12T08:49:56.788Z,62.40
2017-10-12T08:52:24.071Z,61.30
2017-10-12T08:54:50.550Z,61.30
2017-10-12T08:57:16.957Z,60.90
2017-10-12T08:59:44.137Z,60.60
2017-10-12T09:02:10.552Z,60.70
2017-10-12T09:04:37.743Z,59.90
2017-10-12T09:07:04.181Z,60.00
2017-10-12T09:09:30.598Z,61.10
2017-10-12T09:11:56.973Z,59.80
2017-10-12T09:14:23.414Z,60.50
2017-10-12T09:16:50.656Z,60.80
2017-10-12T09:19:17.089Z,60.00
2017-10-12T09:21:43.508Z,58.70
2017-10-12T09:24:09.944Z,59.10
2017-10-12T09:26:36.380Z,57.10
2017-10-12T09:29:02.877Z,57.80
2017-10-12T09:31:29.407Z,57.50
2017-10-12T09:33:55.840Z,58.60
2017-10-12T09:36:22.302Z,57.80
2017-10-12T09:38:48.733Z,58.20
2017-10-12T09:41:15.169Z,58.20
2017-10-12T09:43:41.618Z,57.30
2017-10-12T09:46:08.030Z,56.70
2017-10-12T09:48:34.442Z,57.40
2017-10-12T09:51:00.892Z,56.50
2017-10-12T09:53:27.361Z,57.50
2017-10-12T09:55:53.837Z,56.00
2017-10-12T09:58:20.305Z,55.90
2017-10-12T10:00:46.726Z,57.10
2017-10-12T10:03:13.176Z,56.00
2017-10-12T10:05:39.602Z,57.10
2017-10-12T10:08:06.053Z,55.60
2017-10-12T10:10:32.536Z,55.70
2017-10-12T10:12:58.942Z,55.90
2017-10-12T10:15:25.361Z,55.90
2017-10-12T10:17:51.768Z,56.80
2017-10-12T10:20:18.148Z,57.30
2017-10-12T10:22:45.314Z,55.00
2017-10-12T10:25:11.721Z,55.10
2017-10-12T10:27:38.115Z,54.90
2017-10-12T10:30:04.528Z,54.10
2017-10-12T10:32:30.955Z,51.50
2017-10-12T10:34:57.450Z,50.70
2017-10-12T10:37:24.677Z,50.50
2017-10-12T10:39:51.089Z,50.40
2017-10-12T10:42:17.503Z,50.80
2017-10-12T10:44:43.903Z,50.90
2017-10-12T10:47:10.332Z,51.40
2017-10-12T10:49:36.726Z,51.50
2017-10-12T10:52:03.128Z,51.70
2017-10-12T10:54:30.271Z,52.60
2017-10-12T10:56:57.445Z,52.70
2017-10-12T10:59:23.827Z,52.70
2017-10-12T11:01:50.236Z,50.30
2017-10-12T11:04:16.657Z,50.00
2017-10-12T11:06:43.080Z,51.70
2017-10-12T11:09:09.491Z,50.30
2017-10-12T11:11:35.889Z,48.30
2017-10-12T11:14:02.273Z,48.90
2017-10-12T11:16:29.424Z,49.40
2017-10-12T11:18:55.803Z,49.30
2017-10-12T11:21:22.432Z,49.90
2017-10-12T11:23:48.826Z,50.10
2017-10-12T11:26:15.244Z,50.20
2017-10-12T11:28:42.372Z,50.70
2017-10-12T11:31:09.519Z,51.00
2017-10-12T11:33:35.930Z,51.00
2017-10-12T11:36:02.304Z,51.60
2017-10-12T11:38:28.705Z,52.00
2017-10-12T11:40:55.105Z,52.00
2017-10-12T11:43:21.506Z,51.10
2017-10-12T11:45:47.891Z,51.20
2017-10-12T11:48:15.777Z,52.10
2017-10-12T11:50:42.250Z,52.00
2017-10-12T11:53:08.728Z,52.60
2017-10-12T11:55:35.140Z,52.50
2017-10-12T11:58:01.572Z,51.80
2017-10-12T12:00:28.035Z,52.70
2017-10-12T12:02:54.458Z,52.40
2017-10-12T12:05:20.908Z,51.80
2017-10-12T12:07:48.109Z,52.60
2017-10-12T12:10:14.534Z,52.60
2017-10-12T12:12:40.928Z,52.50
2017-10-12T12:15:07.332Z,52.70
2017-10-12T12:17:33.731Z,53.00
2017-10-12T12:20:00.157Z,52.00
2017-10-12T12:22:26.550Z,51.80
2017-10-12T12:24:52.957Z,52.10
2017-10-12T12:27:19.421Z,52.40
2017-10-12T12:29:45.851Z,52.90
2017-10-12T12:32:12.979Z,52.20
2017-10-12T12:34:39.445Z,52.20
2017-10-12T12:37:05.840Z,52.60
2017-10-12T12:39:32.266Z,53.90
2017-10-12T12:41:58.770Z,53.90
2017-10-12T12:44:25.165Z,53.90
2017-10-12T12:46:51.562Z,53.70
2017-10-12T12:49:17.967Z,54.20
2017-10-12T12:51:44.368Z,54.50
2017-10-12T12:54:10.756Z,53.40
2017-10-12T12:56:37.156Z,53.40
2017-10-12T12:59:04.288Z,53.80
2017-10-12T13:01:30.673Z,53.80
2017-10-12T13:03:57.077Z,54.00
2017-10-12T13:06:23.524Z,54.40
2017-10-12T13:08:49.959Z,54.50
2017-10-12T13:11:16.343Z,54.50
2017-10-12T13:13:42.738Z,55.20
2017-10-12T13:16:09.173Z,54.50
2017-10-12T13:18:35.560Z,54.50
2017-10-12T13:21:02.723Z,54.70
2017-10-12T13:23:29.125Z,54.60
2017-10-12T13:25:55.521Z,54.90
2017-10-12T13:28:21.903Z,55.00
2017-10-12T13:30:49.063Z,55.30
2017-10-12T13:33:16.187Z,55.10
2017-10-12T13:35:42.607Z,55.10
2017-10-12T13:38:09.060Z,54.80
2017-10-12T13:40:36.221Z,55.80
2017-10-12T13:43:03.548Z,55.80
2017-10-12T13:45:30.717Z,55.30
2017-10-12T13:47:57.167Z,55.30
2017-10-12T13:50:23.575Z,56.20
2017-10-12T13:52:50.797Z,55.70
2017-10-12T13:55:17.250Z,55.70
2017-10-12T13:57:43.652Z,56.10
2017-10-12T14:00:10.070Z,56.20
2017-10-12T14:02:36.522Z,56.30
2017-10-12T14:05:02.951Z,56.60
2017-10-12T14:07:29.374Z,56.60
2017-10-12T14:09:55.845Z,56.40
2017-10-12T14:12:22.324Z,56.70
2017-10-12T14:14:48.794Z,56.30
2017-10-12T14:17:15.237Z,56.10
2017-10-12T14:19:41.723Z,56.90
2017-10-12T14:22:08.179Z,56.30
2017-10-12T14:24:34.558Z,56.50
2017-10-12T14:27:00.973Z,56.50
2017-10-12T14:29:27.403Z,56.70
2017-10-12T14:31:54.015Z,56.50
2017-10-12T14:34:20.463Z,56.40
2017-10-12T14:36:46.893Z,56.10
2017-10-12T14:39:13.293Z,56.30
2017-10-12T14:41:39.759Z,56.10
2017-10-12T14:44:06.175Z,56.00
2017-10-12T14:46:32.610Z,56.30
2017-10-12T14:48:59.000Z,56.10
2017-10-12T14:51:25.384Z,56.30
2017-10-12T14:53:51.820Z,56.80
2017-10-12T14:56:18.223Z,56.30
2017-10-12T14:58:45.387Z,56.20
2017-10-12T15:01:11.817Z,56.20
2017-10-12T15:03:38.994Z,55.60
2017-10-12T15:06:06.141Z,55.90
2017-10-12T15:08:32.620Z,55.90
2017-10-12T15:10:59.757Z,56.80
2017-10-12T15:13:26.174Z,56.20
2017-10-12T15:15:52.585Z,56.50
2017-10-12T15:18:19.496Z,56.70
2017-10-12T15:20:46.671Z,57.00
2017-10-12T15:23:13.097Z,57.10
2017-10-12T15:25:39.501Z,57.20
2017-10-12T15:28:06.637Z,56.70
2017-10-12T15:30:33.045Z,56.70
2017-10-12T15:32:59.484Z,56.70
2017-10-12T15:35:25.899Z,57.00
2017-10-12T15:37:52.329Z,56.60
2017-10-12T15:40:18.765Z,56.80
2017-10-12T15:42:45.236Z,57.20
2017-10-12T15:45:11.641Z,57.30
2017-10-12T15:47:38.075Z,57.40
2017-10-12T15:50:04.518Z,57.50
2017-10-12T15:52:30.930Z,57.60
2017-10-12T15:54:57.349Z,57.90
2017-10-12T15:57:23.761Z,58.10
2017-10-12T15:59:50.965Z,58.00
2017-10-12T16:02:17.420Z,57.90
2017-10-12T16:04:44.564Z,58.40
2017-10-12T16:07:10.944Z,58.40
2017-10-12T16:09:37.380Z,58.10
2017-10-12T16:12:03.812Z,58.20
2017-10-12T16:14:30.223Z,58.70
2017-10-12T16:16:56.596Z,58.60
2017-10-12T16:19:23.022Z,58.70
2017-10-12T16:21:49.424Z,59.00
2017-10-12T16:24:15.836Z,59.20
2017-10-12T16:26:42.997Z,59.30
2017-10-12T16:29:10.136Z,59.60
2017-10-12T16:31:37.284Z,59.50
2017-10-12T16:34:03.672Z,59.70
2017-10-12T16:36:30.074Z,59.80
2017-10-12T16:38:56.450Z,59.80
2017-10-12T16:41:22.868Z,59.90
2017-10-12T16:43:49.375Z,60.00
2017-10-12T16:46:15.776Z,60.40
2017-10-12T16:48:42.923Z,60.60
2017-10-12T16:51:09.323Z,60.70
2017-10-12T16:53:35.751Z,60.80
2017-10-12T16:56:02.198Z,61.20
2017-10-12T16:58:28.653Z,61.30
2017-10-12T17:00:56.601Z,61.50
2017-10-12T17:03:23.777Z,61.70
2017-10-12T17:05:50.189Z,61.70
2017-10-12T17:08:16.689Z,62.00
2017-10-12T17:10:43.191Z,63.00
2017-10-12T17:15:36.952Z,62.40
2017-10-12T17:18:03.399Z,62.50
2017-10-12T17:20:30.550Z,62.70
2017-10-12T17:22:56.984Z,62.70
2017-10-12T17:25:23.462Z,62.60
2017-10-12T17:27:50.033Z,62.70
2017-10-12T17:30:16.491Z,62.90
2017-10-12T17:32:42.873Z,62.90
2017-10-12T17:35:09.269Z,63.40
2017-10-12T17:37:36.400Z,63.70
2017-10-12T17:40:02.871Z,63.70
2017-10-12T17:42:29.280Z,63.30
2017-10-12T17:44:56.433Z,64.10
2017-10-12T17:47:23.432Z,63.40
2017-10-12T17:49:49.925Z,63.60
2017-10-12T17:52:16.403Z,63.70
2017-10-12T17:54:42.821Z,63.70
2017-10-12T17:57:09.247Z,63.80
2017-10-12T17:59:35.706Z,63.60
2017-10-12T18:02:02.953Z,64.50
2017-10-12T18:06:55.807Z,64.40
2017-10-12T18:09:22.259Z,64.20
2017-10-12T18:14:15.124Z,64.10
2017-10-12T18:16:41.524Z,64.30
2017-10-12T18:19:07.925Z,64.00
2017-10-12T18:21:34.376Z,64.20
2017-10-12T18:24:00.790Z,64.30
2017-10-12T18:26:27.954Z,64.40
2017-10-12T18:28:55.117Z,64.40
2017-10-12T18:31:21.544Z,64.40
2017-10-12T18:33:47.939Z,64.20
2017-10-12T18:36:14.350Z,63.80
2017-10-12T18:38:40.758Z,63.90
2017-10-12T18:41:07.155Z,64.20
2017-10-12T18:43:34.323Z,64.70
2017-10-12T18:46:01.472Z,64.60
2017-10-12T18:48:28.607Z,64.50
2017-10-12T18:50:55.805Z,64.60
2017-10-12T18:53:22.233Z,64.50
2017-10-12T18:55:48.635Z,64.70
2017-10-12T18:58:15.787Z,65.10
2017-10-12T19:00:42.260Z,65.00
2017-10-12T19:03:08.658Z,65.00
2017-10-12T19:05:35.081Z,65.00
2017-10-12T19:08:01.497Z,65.20
2017-10-12T19:10:28.655Z,65.20
2017-10-12T19:12:55.822Z,64.90
2017-10-12T19:15:22.256Z,65.00
2017-10-12T19:17:48.722Z,65.20
2017-10-12T19:20:15.148Z,64.60
2017-10-12T19:22:41.556Z,64.40
2017-10-12T19:25:08.013Z,63.80
2017-10-12T19:27:34.424Z,64.20
2017-10-12T19:30:00.851Z,64.10
2017-10-12T19:32:27.316Z,64.00
2017-10-12T19:34:53.722Z,64.10
2017-10-12T19:37:20.131Z,64.10
2017-10-12T19:39:47.269Z,64.00
2017-10-12T19:42:14.657Z,64.00
2017-10-12T19:44:41.089Z,64.00
2017-10-12T19:47:07.544Z,63.70
2017-10-12T19:49:33.963Z,63.40
2017-10-12T19:52:00.388Z,63.40
2017-10-12T19:54:26.821Z,63.30
2017-10-12T19:56:53.288Z,63.50
2017-10-12T19:59:19.697Z,63.80
2017-10-12T20:01:46.147Z,64.30
2017-10-12T20:04:12.531Z,64.60
2017-10-12T20:06:39.741Z,65.00
2017-10-12T20:09:06.136Z,65.00
2017-10-12T20:11:32.619Z,65.20
2017-10-12T20:16:26.984Z,63.50
2017-10-12T20:18:53.403Z,63.50
2017-10-12T20:23:46.884Z,62.30
2017-10-12T20:26:13.305Z,62.30
2017-10-12T20:28:40.475Z,62.00
2017-10-12T20:31:06.903Z,62.00
2017-10-12T20:33:33.300Z,62.50
2017-10-12T20:35:59.686Z,61.70
2017-10-12T20:38:26.102Z,61.50
2017-10-12T20:40:52.503Z,61.50
2017-10-12T20:43:18.890Z,61.30
2017-10-12T20:45:45.904Z,60.90
2017-10-12T20:48:12.342Z,61.30
2017-10-12T20:50:38.774Z,61.10
2017-10-12T20:53:05.209Z,61.00
2017-10-12T20:55:31.655Z,60.80
2017-10-12T20:57:58.045Z,60.80
2017-10-12T21:00:24.466Z,60.70
2017-10-12T21:02:50.902Z,60.60
2017-10-12T21:05:18.090Z,60.50
2017-10-12T21:07:44.489Z,60.40
2017-10-12T21:10:11.882Z,60.60
2017-10-12T21:12:38.310Z,60.50
2017-10-12T21:15:04.748Z,60.70
2017-10-12T21:17:31.182Z,60.50
2017-10-12T21:19:57.640Z,60.60
2017-10-12T21:22:24.044Z,60.90
2017-10-12T21:24:50.441Z,61.00
2017-10-12T21:27:16.910Z,61.10
2017-10-12T21:29:43.317Z,61.20
2017-10-12T21:32:10.497Z,61.50
2017-10-12T21:34:36.925Z,61.40
2017-10-12T21:37:03.324Z,61.40
2017-10-12T21:39:29.722Z,61.40
2017-10-12T21:41:56.099Z,61.00
2017-10-12T21:44:23.238Z,61.50
2017-10-12T21:46:49.637Z,61.90
2017-10-12T21:49:16.038Z,62.70
2017-10-12T21:51:42.482Z,62.40
2017-10-12T21:54:08.872Z,63.40
2017-10-12T21:56:36.013Z,63.20
2017-10-12T21:59:03.186Z,62.70
2017-10-12T22:01:30.330Z,62.90
2017-10-12T22:03:57.440Z,63.00
2017-10-12T22:06:23.849Z,63.60
2017-10-12T22:08:50.228Z,63.20
2017-10-12T22:11:16.611Z,63.50
2017-10-12T22:13:46.624Z,63.60
2017-10-12T22:16:13.015Z,63.50
2017-10-12T22:18:39.469Z,63.60
2017-10-12T22:21:05.888Z,63.40
2017-10-12T22:23:33.031Z,64.20
2017-10-12T22:26:00.208Z,63.40
2017-10-12T22:28:27.371Z,63.70
2017-10-12T22:30:53.818Z,63.70
2017-10-12T22:33:20.222Z,63.90
2017-10-12T22:35:47.353Z,64.00
2017-10-12T22:38:14.495Z,64.40
2017-10-12T22:40:40.922Z,64.40
2017-10-12T22:43:07.394Z,64.10
2017-10-12T22:45:33.830Z,64.30
2017-10-12T22:48:00.262Z,64.30
2017-10-12T22:50:26.687Z,64.10
2017-10-12T22:52:53.088Z,64.30
2017-10-12T22:55:19.524Z,64.20
2017-10-12T22:57:46.728Z,63.50
2017-10-12T23:00:13.146Z,64.00
2017-10-12T23:02:39.573Z,63.90
2017-10-12T23:05:05.977Z,63.90
2017-10-12T23:07:33.188Z,63.90
2017-10-12T23:09:59.591Z,63.80
2017-10-12T23:12:25.992Z,64.10
2017-10-12T23:14:52.383Z,64.20
2017-10-12T23:17:18.786Z,64.50
2017-10-12T23:19:45.177Z,64.10
2017-10-12T23:22:11.626Z,64.30
2017-10-12T23:24:38.785Z,64.10
2017-10-12T23:27:05.949Z,64.20
2017-10-12T23:29:33.080Z,64.00
2017-10-12T23:32:00.270Z,64.10
2017-10-12T23:34:26.684Z,64.10
2017-10-12T23:36:53.797Z,64.10
2017-10-12T23:39:20.234Z,64.10
2017-10-12T23:41:46.656Z,63.50
2017-10-12T23:44:13.086Z,63.30
2017-10-12T23:46:39.582Z,63.80
2017-10-12T23:49:05.984Z,64.20
2017-10-12T23:51:33.148Z,64.40
2017-10-12T23:53:59.548Z,64.40
2017-10-12T23:56:26.710Z,64.70
2017-10-12T23:58:53.854Z,64.50
